sensor_id;sensor_type;location;lat;lon;timestamp;P1;durP1;ratioP1;P2;durP2;ratioP2
289;SDS011;13193;48.874;9.086;2022-11-20T00:02:24;30.30;;;9.97;;
289;SDS011;13193;48.874;9.086;2022-11-20T00:04:49;41.33;;;11.97;;
289;SDS011;13193;48.874;9.086;2022-11-20T00:07:18;26.00;;;9.97;;
289;SDS011;13193;48.874;9.086;2022-11-20T00:09:44;24.10;;;10.50;;
289;SDS011;13193;48.874;9.086;2022-11-20T00:12:09;22.63;;;11.50;;
289;SDS011;13193;48.874;9.086;2022-11-20T00:14:35;23.60;;;10.30;;
289;SDS011;13193;48.874;9.086;2022-11-20T00:17:00;19.60;;;9.00;;
289;SDS011;13193;48.874;9.086;2022-11-20T00:19:26;20.57;;;9.93;;
289;SDS011;13193;48.874;9.086;2022-11-20T00:21:52;21.67;;;9.00;;
289;SDS011;13193;48.874;9.086;2022-11-20T00:24:18;16.00;;;7.83;;
289;SDS011;13193;48.874;9.086;2022-11-20T00:26:45;21.47;;;8.60;;
289;SDS011;13193;48.874;9.086;2022-11-20T00:29:12;22.07;;;8.67;;
289;SDS011;13193;48.874;9.086;2022-11-20T00:31:38;18.83;;;8.30;;
289;SDS011;13193;48.874;9.086;2022-11-20T00:34:05;17.67;;;8.27;;
289;SDS011;13193;48.874;9.086;2022-11-20T00:36:32;22.83;;;10.13;;
289;SDS011;13193;48.874;9.086;2022-11-20T00:39:00;26.03;;;9.20;;
289;SDS011;13193;48.874;9.086;2022-11-20T00:41:26;21.70;;;9.47;;
289;SDS011;13193;48.874;9.086;2022-11-20T00:43:53;18.13;;;8.73;;
289;SDS011;13193;48.874;9.086;2022-11-20T00:46:21;17.60;;;7.33;;
289;SDS011;13193;48.874;9.086;2022-11-20T00:48:48;18.47;;;9.53;;
289;SDS011;13193;48.874;9.086;2022-11-20T00:51:15;21.13;;;7.80;;
289;SDS011;13193;48.874;9.086;2022-11-20T00:53:44;20.10;;;9.00;;
289;SDS011;13193;48.874;9.086;2022-11-20T00:56:11;16.90;;;8.40;;
289;SDS011;13193;48.874;9.086;2022-11-20T00:58:41;15.87;;;8.13;;
289;SDS011;13193;48.874;9.086;2022-11-20T01:01:12;15.50;;;6.90;;
289;SDS011;13193;48.874;9.086;2022-11-20T01:03:40;17.03;;;8.33;;
289;SDS011;13193;48.874;9.086;2022-11-20T01:06:13;13.90;;;6.43;;
289;SDS011;13193;48.874;9.086;2022-11-20T01:08:40;14.00;;;5.83;;
289;SDS011;13193;48.874;9.086;2022-11-20T01:11:07;17.00;;;6.90;;
289;SDS011;13193;48.874;9.086;2022-11-20T01:13:40;19.97;;;9.10;;
289;SDS011;13193;48.874;9.086;2022-11-20T01:16:11;17.13;;;7.63;;
289;SDS011;13193;48.874;9.086;2022-11-20T01:18:42;13.03;;;7.47;;
289;SDS011;13193;48.874;9.086;2022-11-20T01:21:11;23.70;;;9.67;;
289;SDS011;13193;48.874;9.086;2022-11-20T01:23:39;15.93;;;8.50;;
289;SDS011;13193;48.874;9.086;2022-11-20T01:26:07;16.20;;;7.63;;
289;SDS011;13193;48.874;9.086;2022-11-20T01:28:44;15.73;;;6.80;;
289;SDS011;13193;48.874;9.086;2022-11-20T01:31:10;18.00;;;7.77;;
289;SDS011;13193;48.874;9.086;2022-11-20T01:33:41;14.53;;;5.97;;
289;SDS011;13193;48.874;9.086;2022-11-20T01:36:07;14.30;;;6.63;;
289;SDS011;13193;48.874;9.086;2022-11-20T01:38:33;16.30;;;7.60;;
289;SDS011;13193;48.874;9.086;2022-11-20T01:41:06;19.60;;;8.20;;
289;SDS011;13193;48.874;9.086;2022-11-20T01:43:32;16.77;;;7.30;;
289;SDS011;13193;48.874;9.086;2022-11-20T01:48:32;16.70;;;7.70;;
289;SDS011;13193;48.874;9.086;2022-11-20T01:51:03;18.10;;;7.90;;
289;SDS011;13193;48.874;9.086;2022-11-20T01:53:32;18.83;;;7.83;;
289;SDS011;13193;48.874;9.086;2022-11-20T01:56:01;13.93;;;6.97;;
289;SDS011;13193;48.874;9.086;2022-11-20T01:58:32;19.13;;;8.10;;
289;SDS011;13193;48.874;9.086;2022-11-20T02:01:00;17.80;;;8.57;;
289;SDS011;13193;48.874;9.086;2022-11-20T02:03:27;21.87;;;7.93;;
289;SDS011;13193;48.874;9.086;2022-11-20T02:05:59;16.40;;;7.70;;
289;SDS011;13193;48.874;9.086;2022-11-20T02:08:35;20.63;;;8.43;;
289;SDS011;13193;48.874;9.086;2022-11-20T02:11:02;17.30;;;8.60;;
289;SDS011;13193;48.874;9.086;2022-11-20T02:13:28;17.50;;;9.83;;
289;SDS011;13193;48.874;9.086;2022-11-20T02:16:18;17.00;;;8.87;;
289;SDS011;13193;48.874;9.086;2022-11-20T02:19:05;19.57;;;9.33;;
289;SDS011;13193;48.874;9.086;2022-11-20T02:24:30;19.90;;;9.60;;
289;SDS011;13193;48.874;9.086;2022-11-20T02:27:06;19.53;;;9.53;;
289;SDS011;13193;48.874;9.086;2022-11-20T02:29:45;19.70;;;8.13;;
289;SDS011;13193;48.874;9.086;2022-11-20T02:32:22;19.03;;;7.60;;
289;SDS011;13193;48.874;9.086;2022-11-20T02:34:55;19.87;;;8.77;;
289;SDS011;13193;48.874;9.086;2022-11-20T02:37:21;17.50;;;7.90;;
289;SDS011;13193;48.874;9.086;2022-11-20T02:39:49;28.03;;;10.30;;
289;SDS011;13193;48.874;9.086;2022-11-20T02:42:18;21.47;;;9.60;;
289;SDS011;13193;48.874;9.086;2022-11-20T02:44:43;18.43;;;9.30;;
289;SDS011;13193;48.874;9.086;2022-11-20T02:47:09;12.20;;;5.70;;
289;SDS011;13193;48.874;9.086;2022-11-20T02:49:35;11.70;;;5.10;;
289;SDS011;13193;48.874;9.086;2022-11-20T02:52:01;12.57;;;4.90;;
289;SDS011;13193;48.874;9.086;2022-11-20T02:54:27;8.40;;;4.40;;
289;SDS011;13193;48.874;9.086;2022-11-20T02:56:53;7.87;;;4.10;;
289;SDS011;13193;48.874;9.086;2022-11-20T02:59:18;8.63;;;4.20;;
289;SDS011;13193;48.874;9.086;2022-11-20T03:01:44;8.27;;;4.00;;
289;SDS011;13193;48.874;9.086;2022-11-20T03:04:10;8.07;;;4.33;;
289;SDS011;13193;48.874;9.086;2022-11-20T03:06:35;7.77;;;3.73;;
289;SDS011;13193;48.874;9.086;2022-11-20T03:09:01;7.97;;;3.23;;
289;SDS011;13193;48.874;9.086;2022-11-20T03:11:27;8.43;;;3.80;;
289;SDS011;13193;48.874;9.086;2022-11-20T03:13:53;5.70;;;2.53;;
289;SDS011;13193;48.874;9.086;2022-11-20T03:16:21;8.80;;;3.10;;
289;SDS011;13193;48.874;9.086;2022-11-20T03:18:49;6.53;;;3.50;;
289;SDS011;13193;48.874;9.086;2022-11-20T03:21:17;6.67;;;3.23;;
289;SDS011;13193;48.874;9.086;2022-11-20T03:23:43;4.80;;;2.90;;
289;SDS011;13193;48.874;9.086;2022-11-20T03:26:13;8.57;;;3.77;;
289;SDS011;13193;48.874;9.086;2022-11-20T03:28:48;8.50;;;3.23;;
289;SDS011;13193;48.874;9.086;2022-11-20T03:31:16;8.07;;;3.47;;
289;SDS011;13193;48.874;9.086;2022-11-20T03:33:43;9.33;;;2.93;;
289;SDS011;13193;48.874;9.086;2022-11-20T03:36:10;5.87;;;2.90;;
289;SDS011;13193;48.874;9.086;2022-11-20T03:38:37;6.90;;;3.67;;
289;SDS011;13193;48.874;9.086;2022-11-20T03:41:04;5.60;;;3.10;;
289;SDS011;13193;48.874;9.086;2022-11-20T03:43:34;14.97;;;3.30;;
289;SDS011;13193;48.874;9.086;2022-11-20T03:46:00;9.50;;;3.77;;
289;SDS011;13193;48.874;9.086;2022-11-20T03:48:26;6.60;;;3.50;;
289;SDS011;13193;48.874;9.086;2022-11-20T03:50:53;8.83;;;3.10;;
289;SDS011;13193;48.874;9.086;2022-11-20T03:53:38;9.33;;;3.47;;
289;SDS011;13193;48.874;9.086;2022-11-20T03:56:04;6.30;;;3.40;;
289;SDS011;13193;48.874;9.086;2022-11-20T03:58:32;8.60;;;3.60;;
289;SDS011;13193;48.874;9.086;2022-11-20T04:01:03;7.63;;;3.70;;
289;SDS011;13193;48.874;9.086;2022-11-20T04:03:31;10.93;;;3.60;;
289;SDS011;13193;48.874;9.086;2022-11-20T04:06:01;7.30;;;3.53;;
289;SDS011;13193;48.874;9.086;2022-11-20T04:08:34;7.00;;;3.07;;
289;SDS011;13193;48.874;9.086;2022-11-20T04:11:09;5.87;;;3.53;;
289;SDS011;13193;48.874;9.086;2022-11-20T04:13:40;6.73;;;3.67;;
289;SDS011;13193;48.874;9.086;2022-11-20T04:16:08;7.20;;;4.20;;
289;SDS011;13193;48.874;9.086;2022-11-20T04:18:34;7.43;;;3.70;;
289;SDS011;13193;48.874;9.086;2022-11-20T04:21:01;8.87;;;3.60;;
289;SDS011;13193;48.874;9.086;2022-11-20T04:23:29;6.00;;;3.23;;
289;SDS011;13193;48.874;9.086;2022-11-20T04:25:54;5.80;;;3.33;;
289;SDS011;13193;48.874;9.086;2022-11-20T04:28:25;14.03;;;3.87;;
289;SDS011;13193;48.874;9.086;2022-11-20T04:30:52;9.97;;;3.63;;
289;SDS011;13193;48.874;9.086;2022-11-20T04:33:17;6.70;;;2.80;;
289;SDS011;13193;48.874;9.086;2022-11-20T04:35:43;7.40;;;3.33;;
289;SDS011;13193;48.874;9.086;2022-11-20T04:38:13;8.67;;;3.40;;
289;SDS011;13193;48.874;9.086;2022-11-20T04:40:39;6.67;;;4.20;;
289;SDS011;13193;48.874;9.086;2022-11-20T04:43:06;6.90;;;3.60;;
289;SDS011;13193;48.874;9.086;2022-11-20T04:45:32;7.53;;;3.60;;
289;SDS011;13193;48.874;9.086;2022-11-20T04:47:57;6.97;;;3.50;;
289;SDS011;13193;48.874;9.086;2022-11-20T04:50:23;8.20;;;4.00;;
289;SDS011;13193;48.874;9.086;2022-11-20T04:52:49;9.20;;;5.77;;
289;SDS011;13193;48.874;9.086;2022-11-20T04:55:14;13.83;;;4.37;;
289;SDS011;13193;48.874;9.086;2022-11-20T04:57:40;5.50;;;3.47;;
289;SDS011;13193;48.874;9.086;2022-11-20T05:00:05;12.43;;;3.30;;
289;SDS011;13193;48.874;9.086;2022-11-20T05:02:33;7.17;;;3.40;;
289;SDS011;13193;48.874;9.086;2022-11-20T05:04:58;3.50;;;2.30;;
289;SDS011;13193;48.874;9.086;2022-11-20T05:07:25;6.50;;;3.20;;
289;SDS011;13193;48.874;9.086;2022-11-20T05:09:51;7.07;;;3.03;;
289;SDS011;13193;48.874;9.086;2022-11-20T05:12:16;11.70;;;3.23;;
289;SDS011;13193;48.874;9.086;2022-11-20T05:14:42;4.73;;;2.80;;
289;SDS011;13193;48.874;9.086;2022-11-20T05:17:09;7.70;;;3.40;;
289;SDS011;13193;48.874;9.086;2022-11-20T05:19:37;5.67;;;3.53;;
289;SDS011;13193;48.874;9.086;2022-11-20T05:22:03;5.60;;;2.70;;
289;SDS011;13193;48.874;9.086;2022-11-20T05:24:30;8.83;;;3.00;;
289;SDS011;13193;48.874;9.086;2022-11-20T05:26:57;5.83;;;3.27;;
289;SDS011;13193;48.874;9.086;2022-11-20T05:29:22;4.30;;;2.93;;
289;SDS011;13193;48.874;9.086;2022-11-20T05:31:48;5.73;;;3.10;;
289;SDS011;13193;48.874;9.086;2022-11-20T05:34:14;7.63;;;3.10;;
289;SDS011;13193;48.874;9.086;2022-11-20T05:36:39;9.47;;;3.20;;
289;SDS011;13193;48.874;9.086;2022-11-20T05:39:05;5.20;;;2.80;;
289;SDS011;13193;48.874;9.086;2022-11-20T05:41:32;17.30;;;3.10;;
289;SDS011;13193;48.874;9.086;2022-11-20T05:43:58;6.90;;;2.83;;
289;SDS011;13193;48.874;9.086;2022-11-20T05:46:23;3.97;;;2.60;;
289;SDS011;13193;48.874;9.086;2022-11-20T05:48:49;6.50;;;3.27;;
289;SDS011;13193;48.874;9.086;2022-11-20T05:51:16;7.40;;;4.10;;
289;SDS011;13193;48.874;9.086;2022-11-20T05:53:45;5.07;;;2.90;;
289;SDS011;13193;48.874;9.086;2022-11-20T05:56:14;4.90;;;2.70;;
289;SDS011;13193;48.874;9.086;2022-11-20T05:58:42;8.20;;;4.10;;
289;SDS011;13193;48.874;9.086;2022-11-20T06:01:09;6.90;;;3.07;;
289;SDS011;13193;48.874;9.086;2022-11-20T06:03:37;4.00;;;2.30;;
289;SDS011;13193;48.874;9.086;2022-11-20T06:06:39;6.23;;;2.37;;
289;SDS011;13193;48.874;9.086;2022-11-20T06:09:05;6.00;;;3.40;;
289;SDS011;13193;48.874;9.086;2022-11-20T06:11:32;7.77;;;3.90;;
289;SDS011;13193;48.874;9.086;2022-11-20T06:13:59;5.50;;;3.10;;
289;SDS011;13193;48.874;9.086;2022-11-20T06:16:25;4.00;;;2.33;;
289;SDS011;13193;48.874;9.086;2022-11-20T06:18:51;8.83;;;3.10;;
289;SDS011;13193;48.874;9.086;2022-11-20T06:21:17;8.17;;;3.50;;
289;SDS011;13193;48.874;9.086;2022-11-20T06:23:45;4.43;;;2.63;;
289;SDS011;13193;48.874;9.086;2022-11-20T06:26:15;9.57;;;3.63;;
289;SDS011;13193;48.874;9.086;2022-11-20T06:28:42;5.00;;;2.83;;
289;SDS011;13193;48.874;9.086;2022-11-20T06:31:10;7.20;;;3.87;;
289;SDS011;13193;48.874;9.086;2022-11-20T06:33:37;6.20;;;3.20;;
289;SDS011;13193;48.874;9.086;2022-11-20T06:36:03;6.13;;;3.50;;
289;SDS011;13193;48.874;9.086;2022-11-20T06:38:29;4.67;;;3.10;;
289;SDS011;13193;48.874;9.086;2022-11-20T06:40:55;13.73;;;3.40;;
289;SDS011;13193;48.874;9.086;2022-11-20T06:43:21;5.90;;;3.40;;
289;SDS011;13193;48.874;9.086;2022-11-20T06:45:52;10.10;;;3.30;;
289;SDS011;13193;48.874;9.086;2022-11-20T06:48:19;6.30;;;3.33;;
289;SDS011;13193;48.874;9.086;2022-11-20T06:50:45;5.33;;;2.70;;
289;SDS011;13193;48.874;9.086;2022-11-20T06:53:10;6.60;;;3.40;;
289;SDS011;13193;48.874;9.086;2022-11-20T06:55:36;4.60;;;2.80;;
289;SDS011;13193;48.874;9.086;2022-11-20T06:58:02;5.33;;;3.00;;
289;SDS011;13193;48.874;9.086;2022-11-20T07:00:28;5.30;;;2.70;;
289;SDS011;13193;48.874;9.086;2022-11-20T07:02:53;7.57;;;3.90;;
289;SDS011;13193;48.874;9.086;2022-11-20T07:05:20;8.60;;;4.27;;
289;SDS011;13193;48.874;9.086;2022-11-20T07:07:46;7.10;;;3.67;;
289;SDS011;13193;48.874;9.086;2022-11-20T07:10:12;5.17;;;3.00;;
289;SDS011;13193;48.874;9.086;2022-11-20T07:12:37;8.20;;;2.97;;
289;SDS011;13193;48.874;9.086;2022-11-20T07:15:03;5.60;;;3.00;;
289;SDS011;13193;48.874;9.086;2022-11-20T07:17:30;5.73;;;3.17;;
289;SDS011;13193;48.874;9.086;2022-11-20T07:19:56;5.90;;;2.47;;
289;SDS011;13193;48.874;9.086;2022-11-20T07:22:21;7.57;;;2.50;;
289;SDS011;13193;48.874;9.086;2022-11-20T07:24:48;3.90;;;2.30;;
289;SDS011;13193;48.874;9.086;2022-11-20T07:27:19;4.60;;;2.13;;
289;SDS011;13193;48.874;9.086;2022-11-20T07:29:45;5.37;;;2.37;;
289;SDS011;13193;48.874;9.086;2022-11-20T07:32:11;5.30;;;2.33;;
289;SDS011;13193;48.874;9.086;2022-11-20T07:34:36;4.43;;;2.63;;
289;SDS011;13193;48.874;9.086;2022-11-20T07:37:02;3.73;;;2.17;;
289;SDS011;13193;48.874;9.086;2022-11-20T07:39:28;4.33;;;2.40;;
289;SDS011;13193;48.874;9.086;2022-11-20T07:41:53;3.70;;;2.43;;
289;SDS011;13193;48.874;9.086;2022-11-20T07:44:19;3.60;;;2.07;;
289;SDS011;13193;48.874;9.086;2022-11-20T07:46:44;8.27;;;2.50;;
289;SDS011;13193;48.874;9.086;2022-11-20T07:49:13;4.40;;;2.13;;
289;SDS011;13193;48.874;9.086;2022-11-20T07:51:39;4.70;;;2.37;;
289;SDS011;13193;48.874;9.086;2022-11-20T07:54:04;12.70;;;2.40;;
289;SDS011;13193;48.874;9.086;2022-11-20T07:56:30;7.47;;;2.70;;
289;SDS011;13193;48.874;9.086;2022-11-20T07:58:56;4.00;;;2.07;;
289;SDS011;13193;48.874;9.086;2022-11-20T08:01:21;10.00;;;4.90;;
289;SDS011;13193;48.874;9.086;2022-11-20T08:03:47;4.47;;;2.77;;
289;SDS011;13193;48.874;9.086;2022-11-20T08:06:13;5.43;;;2.47;;
289;SDS011;13193;48.874;9.086;2022-11-20T08:08:39;5.03;;;3.97;;
289;SDS011;13193;48.874;9.086;2022-11-20T08:11:07;5.93;;;3.00;;
289;SDS011;13193;48.874;9.086;2022-11-20T08:13:53;3.43;;;2.60;;
289;SDS011;13193;48.874;9.086;2022-11-20T08:16:36;3.53;;;1.80;;
289;SDS011;13193;48.874;9.086;2022-11-20T08:19:03;2.90;;;1.77;;
289;SDS011;13193;48.874;9.086;2022-11-20T08:21:30;5.00;;;1.30;;
289;SDS011;13193;48.874;9.086;2022-11-20T08:23:56;2.73;;;1.27;;
289;SDS011;13193;48.874;9.086;2022-11-20T08:26:23;7.10;;;1.37;;
289;SDS011;13193;48.874;9.086;2022-11-20T08:28:53;7.27;;;1.43;;
289;SDS011;13193;48.874;9.086;2022-11-20T08:31:19;2.50;;;1.00;;
289;SDS011;13193;48.874;9.086;2022-11-20T08:33:45;2.53;;;1.03;;
289;SDS011;13193;48.874;9.086;2022-11-20T08:36:11;4.63;;;1.50;;
289;SDS011;13193;48.874;9.086;2022-11-20T08:38:39;5.27;;;1.77;;
289;SDS011;13193;48.874;9.086;2022-11-20T08:41:05;4.60;;;1.10;;
289;SDS011;13193;48.874;9.086;2022-11-20T08:44:07;2.23;;;1.27;;
289;SDS011;13193;48.874;9.086;2022-11-20T08:46:35;1.53;;;1.00;;
289;SDS011;13193;48.874;9.086;2022-11-20T08:49:03;2.03;;;0.80;;
289;SDS011;13193;48.874;9.086;2022-11-20T08:51:29;3.63;;;1.10;;
289;SDS011;13193;48.874;9.086;2022-11-20T08:53:55;2.50;;;0.87;;
289;SDS011;13193;48.874;9.086;2022-11-20T08:56:21;2.70;;;1.20;;
289;SDS011;13193;48.874;9.086;2022-11-20T08:58:46;3.00;;;1.30;;
289;SDS011;13193;48.874;9.086;2022-11-20T09:01:12;2.27;;;1.00;;
289;SDS011;13193;48.874;9.086;2022-11-20T09:03:37;1.90;;;1.00;;
289;SDS011;13193;48.874;9.086;2022-11-20T09:06:04;4.70;;;1.93;;
289;SDS011;13193;48.874;9.086;2022-11-20T09:08:31;6.30;;;1.70;;
289;SDS011;13193;48.874;9.086;2022-11-20T09:10:58;2.37;;;1.17;;
289;SDS011;13193;48.874;9.086;2022-11-20T09:13:25;6.20;;;0.90;;
289;SDS011;13193;48.874;9.086;2022-11-20T09:15:55;4.30;;;0.80;;
289;SDS011;13193;48.874;9.086;2022-11-20T09:18:26;2.00;;;0.90;;
289;SDS011;13193;48.874;9.086;2022-11-20T09:20:57;3.17;;;1.23;;
289;SDS011;13193;48.874;9.086;2022-11-20T09:23:26;1.77;;;0.60;;
289;SDS011;13193;48.874;9.086;2022-11-20T09:25:55;2.67;;;0.70;;
289;SDS011;13193;48.874;9.086;2022-11-20T09:28:24;1.50;;;0.80;;
289;SDS011;13193;48.874;9.086;2022-11-20T09:30:53;2.20;;;1.00;;
289;SDS011;13193;48.874;9.086;2022-11-20T09:33:18;2.13;;;0.93;;
289;SDS011;13193;48.874;9.086;2022-11-20T09:35:44;2.73;;;1.27;;
289;SDS011;13193;48.874;9.086;2022-11-20T09:38:10;1.50;;;1.00;;
289;SDS011;13193;48.874;9.086;2022-11-20T09:40:37;2.20;;;1.30;;
289;SDS011;13193;48.874;9.086;2022-11-20T09:48:36;3.30;;;1.23;;
289;SDS011;13193;48.874;9.086;2022-11-20T09:54:19;4.33;;;1.50;;
289;SDS011;13193;48.874;9.086;2022-11-20T09:56:49;2.10;;;0.87;;
289;SDS011;13193;48.874;9.086;2022-11-20T10:10:33;4.60;;;1.63;;
289;SDS011;13193;48.874;9.086;2022-11-20T10:15:40;3.20;;;2.13;;
289;SDS011;13193;48.874;9.086;2022-11-20T10:21:17;3.33;;;1.80;;
289;SDS011;13193;48.874;9.086;2022-11-20T10:26:36;3.20;;;1.47;;
289;SDS011;13193;48.874;9.086;2022-11-20T10:29:13;2.80;;;1.40;;
289;SDS011;13193;48.874;9.086;2022-11-20T10:31:40;1.77;;;1.10;;
289;SDS011;13193;48.874;9.086;2022-11-20T10:34:14;2.60;;;1.07;;
289;SDS011;13193;48.874;9.086;2022-11-20T10:37:05;2.27;;;1.00;;
289;SDS011;13193;48.874;9.086;2022-11-20T10:39:39;2.50;;;1.17;;
289;SDS011;13193;48.874;9.086;2022-11-20T10:42:17;2.00;;;0.90;;
289;SDS011;13193;48.874;9.086;2022-11-20T10:45:02;6.83;;;1.47;;
289;SDS011;13193;48.874;9.086;2022-11-20T10:47:59;4.00;;;2.03;;
289;SDS011;13193;48.874;9.086;2022-11-20T10:50:28;5.67;;;1.63;;
289;SDS011;13193;48.874;9.086;2022-11-20T10:52:58;8.50;;;3.73;;
289;SDS011;13193;48.874;9.086;2022-11-20T11:01:26;6.20;;;2.90;;
289;SDS011;13193;48.874;9.086;2022-11-20T11:03:52;5.13;;;2.57;;
289;SDS011;13193;48.874;9.086;2022-11-20T11:06:22;11.17;;;3.03;;
289;SDS011;13193;48.874;9.086;2022-11-20T11:09:04;11.00;;;2.87;;
289;SDS011;13193;48.874;9.086;2022-11-20T11:11:38;6.67;;;3.30;;
289;SDS011;13193;48.874;9.086;2022-11-20T11:14:11;8.80;;;2.80;;
289;SDS011;13193;48.874;9.086;2022-11-20T11:16:51;8.13;;;3.33;;
289;SDS011;13193;48.874;9.086;2022-11-20T11:19:22;8.00;;;3.40;;
289;SDS011;13193;48.874;9.086;2022-11-20T11:21:49;5.40;;;2.60;;
289;SDS011;13193;48.874;9.086;2022-11-20T11:24:29;11.03;;;2.90;;
289;SDS011;13193;48.874;9.086;2022-11-20T11:29:35;3.67;;;2.20;;
289;SDS011;13193;48.874;9.086;2022-11-20T11:32:34;4.80;;;2.17;;
289;SDS011;13193;48.874;9.086;2022-11-20T11:35:04;5.97;;;1.60;;
289;SDS011;13193;48.874;9.086;2022-11-20T11:37:35;4.37;;;2.30;;
289;SDS011;13193;48.874;9.086;2022-11-20T11:40:04;5.50;;;2.30;;
289;SDS011;13193;48.874;9.086;2022-11-20T11:42:31;4.37;;;1.70;;
289;SDS011;13193;48.874;9.086;2022-11-20T11:44:59;7.07;;;2.70;;
289;SDS011;13193;48.874;9.086;2022-11-20T11:47:32;4.40;;;2.00;;
289;SDS011;13193;48.874;9.086;2022-11-20T11:50:18;4.83;;;2.00;;
289;SDS011;13193;48.874;9.086;2022-11-20T11:55:36;12.27;;;2.00;;
289;SDS011;13193;48.874;9.086;2022-11-20T11:58:14;3.50;;;1.50;;
289;SDS011;13193;48.874;9.086;2022-11-20T12:03:50;5.13;;;1.33;;
289;SDS011;13193;48.874;9.086;2022-11-20T12:06:29;3.13;;;1.73;;
289;SDS011;13193;48.874;9.086;2022-11-20T12:09:05;5.27;;;1.40;;
289;SDS011;13193;48.874;9.086;2022-11-20T12:16:36;4.77;;;1.57;;
289;SDS011;13193;48.874;9.086;2022-11-20T12:19:07;5.03;;;1.73;;
289;SDS011;13193;48.874;9.086;2022-11-20T12:40:54;7.33;;;1.23;;
289;SDS011;13193;48.874;9.086;2022-11-20T12:43:28;3.20;;;0.80;;
289;SDS011;13193;48.874;9.086;2022-11-20T12:57:20;4.73;;;1.53;;
289;SDS011;13193;48.874;9.086;2022-11-20T13:11:18;1.53;;;0.80;;
289;SDS011;13193;48.874;9.086;2022-11-20T13:16:47;1.87;;;1.13;;
289;SDS011;13193;48.874;9.086;2022-11-20T13:19:34;13.13;;;3.43;;
289;SDS011;13193;48.874;9.086;2022-11-20T13:22:00;6.37;;;1.27;;
289;SDS011;13193;48.874;9.086;2022-11-20T13:24:27;2.70;;;1.00;;
289;SDS011;13193;48.874;9.086;2022-11-20T13:29:33;2.40;;;0.93;;
289;SDS011;13193;48.874;9.086;2022-11-20T13:32:05;4.23;;;2.07;;
289;SDS011;13193;48.874;9.086;2022-11-20T13:34:51;2.67;;;1.20;;
289;SDS011;13193;48.874;9.086;2022-11-20T13:37:28;2.03;;;1.03;;
289;SDS011;13193;48.874;9.086;2022-11-20T13:42:33;2.10;;;1.10;;
289;SDS011;13193;48.874;9.086;2022-11-20T13:45:23;6.87;;;1.37;;
289;SDS011;13193;48.874;9.086;2022-11-20T13:47:51;3.70;;;1.30;;
289;SDS011;13193;48.874;9.086;2022-11-20T13:50:18;7.03;;;1.10;;
289;SDS011;13193;48.874;9.086;2022-11-20T13:53:04;3.10;;;1.00;;
289;SDS011;13193;48.874;9.086;2022-11-20T13:55:36;4.13;;;1.27;;
289;SDS011;13193;48.874;9.086;2022-11-20T13:58:11;4.10;;;1.30;;
289;SDS011;13193;48.874;9.086;2022-11-20T14:01:09;2.83;;;1.00;;
289;SDS011;13193;48.874;9.086;2022-11-20T14:03:45;2.33;;;0.80;;
289;SDS011;13193;48.874;9.086;2022-11-20T14:06:14;1.43;;;0.80;;
289;SDS011;13193;48.874;9.086;2022-11-20T14:08:59;7.03;;;0.90;;
289;SDS011;13193;48.874;9.086;2022-11-20T14:11:26;2.70;;;0.80;;
289;SDS011;13193;48.874;9.086;2022-11-20T14:14:00;3.40;;;1.37;;
289;SDS011;13193;48.874;9.086;2022-11-20T14:16:29;2.30;;;0.83;;
289;SDS011;13193;48.874;9.086;2022-11-20T14:24:42;1.80;;;1.00;;
289;SDS011;13193;48.874;9.086;2022-11-20T14:27:14;6.33;;;1.30;;
289;SDS011;13193;48.874;9.086;2022-11-20T14:29:44;2.00;;;0.80;;
289;SDS011;13193;48.874;9.086;2022-11-20T14:32:14;2.73;;;1.33;;
289;SDS011;13193;48.874;9.086;2022-11-20T14:34:41;1.63;;;0.90;;
289;SDS011;13193;48.874;9.086;2022-11-20T14:37:11;2.20;;;1.07;;
289;SDS011;13193;48.874;9.086;2022-11-20T14:39:41;3.03;;;0.93;;
289;SDS011;13193;48.874;9.086;2022-11-20T14:42:21;1.87;;;0.80;;
289;SDS011;13193;48.874;9.086;2022-11-20T14:44:49;3.10;;;1.60;;
289;SDS011;13193;48.874;9.086;2022-11-20T14:47:18;5.23;;;2.37;;
289;SDS011;13193;48.874;9.086;2022-11-20T14:49:46;6.67;;;1.10;;
289;SDS011;13193;48.874;9.086;2022-11-20T14:52:15;1.97;;;0.93;;
289;SDS011;13193;48.874;9.086;2022-11-20T14:54:53;5.30;;;1.57;;
289;SDS011;13193;48.874;9.086;2022-11-20T14:57:21;5.20;;;1.87;;
289;SDS011;13193;48.874;9.086;2022-11-20T15:02:42;5.20;;;1.80;;
289;SDS011;13193;48.874;9.086;2022-11-20T15:05:12;4.70;;;1.33;;
289;SDS011;13193;48.874;9.086;2022-11-20T15:07:40;6.93;;;1.17;;
289;SDS011;13193;48.874;9.086;2022-11-20T15:10:11;8.30;;;3.27;;
289;SDS011;13193;48.874;9.086;2022-11-20T15:12:45;3.17;;;1.50;;
289;SDS011;13193;48.874;9.086;2022-11-20T15:15:19;2.67;;;1.60;;
289;SDS011;13193;48.874;9.086;2022-11-20T15:17:54;6.47;;;2.17;;
289;SDS011;13193;48.874;9.086;2022-11-20T15:20:20;4.93;;;1.33;;
289;SDS011;13193;48.874;9.086;2022-11-20T15:22:51;2.20;;;1.40;;
289;SDS011;13193;48.874;9.086;2022-11-20T15:25:17;8.43;;;1.83;;
289;SDS011;13193;48.874;9.086;2022-11-20T15:27:44;7.27;;;1.87;;
289;SDS011;13193;48.874;9.086;2022-11-20T15:30:18;3.60;;;1.90;;
289;SDS011;13193;48.874;9.086;2022-11-20T15:32:45;3.47;;;1.77;;
289;SDS011;13193;48.874;9.086;2022-11-20T15:35:11;8.80;;;2.10;;
289;SDS011;13193;48.874;9.086;2022-11-20T15:37:38;6.83;;;2.17;;
289;SDS011;13193;48.874;9.086;2022-11-20T15:40:04;9.50;;;2.83;;
289;SDS011;13193;48.874;9.086;2022-11-20T15:42:31;4.50;;;1.73;;
289;SDS011;13193;48.874;9.086;2022-11-20T15:44:57;5.90;;;1.50;;
289;SDS011;13193;48.874;9.086;2022-11-20T15:47:25;1.97;;;1.27;;
289;SDS011;13193;48.874;9.086;2022-11-20T15:49:58;2.77;;;1.60;;
289;SDS011;13193;48.874;9.086;2022-11-20T15:52:24;2.57;;;1.50;;
289;SDS011;13193;48.874;9.086;2022-11-20T15:54:50;3.40;;;1.70;;
289;SDS011;13193;48.874;9.086;2022-11-20T15:57:15;4.40;;;1.93;;
289;SDS011;13193;48.874;9.086;2022-11-20T15:59:41;3.23;;;1.57;;
289;SDS011;13193;48.874;9.086;2022-11-20T16:02:08;3.87;;;2.13;;
289;SDS011;13193;48.874;9.086;2022-11-20T16:04:39;4.60;;;2.43;;
289;SDS011;13193;48.874;9.086;2022-11-20T16:07:06;5.90;;;2.05;;
289;SDS011;13193;48.874;9.086;2022-11-20T16:09:32;6.60;;;2.40;;
289;SDS011;13193;48.874;9.086;2022-11-20T16:11:58;6.70;;;2.77;;
289;SDS011;13193;48.874;9.086;2022-11-20T16:14:26;12.57;;;2.80;;
289;SDS011;13193;48.874;9.086;2022-11-20T16:17:11;7.10;;;3.30;;
289;SDS011;13193;48.874;9.086;2022-11-20T16:19:39;6.37;;;2.67;;
289;SDS011;13193;48.874;9.086;2022-11-20T16:22:06;8.00;;;3.10;;
289;SDS011;13193;48.874;9.086;2022-11-20T16:24:31;10.03;;;3.27;;
289;SDS011;13193;48.874;9.086;2022-11-20T16:26:57;11.77;;;4.00;;
289;SDS011;13193;48.874;9.086;2022-11-20T16:29:22;8.03;;;4.23;;
289;SDS011;13193;48.874;9.086;2022-11-20T16:31:48;5.53;;;3.63;;
289;SDS011;13193;48.874;9.086;2022-11-20T16:34:15;10.20;;;4.97;;
289;SDS011;13193;48.874;9.086;2022-11-20T16:36:42;7.20;;;2.90;;
289;SDS011;13193;48.874;9.086;2022-11-20T16:39:09;5.67;;;2.70;;
289;SDS011;13193;48.874;9.086;2022-11-20T16:41:35;6.60;;;3.03;;
289;SDS011;13193;48.874;9.086;2022-11-20T16:44:02;4.20;;;2.50;;
289;SDS011;13193;48.874;9.086;2022-11-20T16:46:32;4.53;;;2.20;;
289;SDS011;13193;48.874;9.086;2022-11-20T16:49:02;6.03;;;2.10;;
289;SDS011;13193;48.874;9.086;2022-11-20T16:51:33;3.30;;;1.77;;
289;SDS011;13193;48.874;9.086;2022-11-20T16:54:00;3.57;;;2.13;;
289;SDS011;13193;48.874;9.086;2022-11-20T16:56:28;4.73;;;1.60;;
289;SDS011;13193;48.874;9.086;2022-11-20T16:58:57;9.60;;;2.73;;
289;SDS011;13193;48.874;9.086;2022-11-20T17:01:24;4.10;;;1.80;;
289;SDS011;13193;48.874;9.086;2022-11-20T17:04:08;12.63;;;1.83;;
289;SDS011;13193;48.874;9.086;2022-11-20T17:06:35;6.83;;;2.10;;
289;SDS011;13193;48.874;9.086;2022-11-20T17:09:04;16.90;;;5.00;;
289;SDS011;13193;48.874;9.086;2022-11-20T17:11:33;7.67;;;3.47;;
289;SDS011;13193;48.874;9.086;2022-11-20T17:13:59;3.93;;;2.30;;
289;SDS011;13193;48.874;9.086;2022-11-20T17:16:26;8.17;;;2.70;;
289;SDS011;13193;48.874;9.086;2022-11-20T17:18:54;3.30;;;2.13;;